sensor_id;sensor_type;location;lat;lon;timestamp;P1;durP1;ratioP1;P2;durP2;ratioP2
46561;SDS011;32289;42.688;23.330;2023-02-26T00:01:20;5.68;;;2.03;;
46561;SDS011;32289;42.688;23.330;2023-02-26T00:05:03;7.28;;;2.28;;
46561;SDS011;32289;42.688;23.330;2023-02-26T00:08:44;8.43;;;2.30;;
46561;SDS011;32289;42.688;23.330;2023-02-26T00:12:25;4.32;;;2.22;;
46561;SDS011;32289;42.688;23.330;2023-02-26T00:16:24;7.70;;;1.85;;
46561;SDS011;32289;42.688;23.330;2023-02-26T00:20:06;5.82;;;2.05;;
46561;SDS011;32289;42.688;23.330;2023-02-26T00:23:51;3.83;;;1.50;;
46561;SDS011;32289;42.688;23.330;2023-02-26T00:27:32;2.78;;;1.45;;
46561;SDS011;32289;42.688;23.330;2023-02-26T00:31:16;7.28;;;2.22;;
46561;SDS011;32289;42.688;23.330;2023-02-26T00:34:57;7.20;;;1.98;;
46561;SDS011;32289;42.688;23.330;2023-02-26T00:38:38;6.85;;;3.08;;
46561;SDS011;32289;42.688;23.330;2023-02-26T00:42:22;6.95;;;2.33;;
46561;SDS011;32289;42.688;23.330;2023-02-26T00:46:16;4.85;;;2.08;;
46561;SDS011;32289;42.688;23.330;2023-02-26T00:50:21;4.95;;;1.40;;
46561;SDS011;32289;42.688;23.330;2023-02-26T00:54:08;6.72;;;2.35;;
46561;SDS011;32289;42.688;23.330;2023-02-26T00:58:02;4.47;;;1.55;;
46561;SDS011;32289;42.688;23.330;2023-02-26T01:01:43;7.97;;;2.10;;
46561;SDS011;32289;42.688;23.330;2023-02-26T01:05:25;10.15;;;1.35;;
46561;SDS011;32289;42.688;23.330;2023-02-26T01:09:12;5.93;;;2.03;;
46561;SDS011;32289;42.688;23.330;2023-02-26T01:12:55;5.87;;;1.37;;
46561;SDS011;32289;42.688;23.330;2023-02-26T01:16:37;3.30;;;1.35;;
46561;SDS011;32289;42.688;23.330;2023-02-26T01:20:28;6.03;;;1.60;;
46561;SDS011;32289;42.688;23.330;2023-02-26T01:24:14;10.43;;;2.08;;
46561;SDS011;32289;42.688;23.330;2023-02-26T01:27:56;3.95;;;2.00;;
46561;SDS011;32289;42.688;23.330;2023-02-26T01:35:49;9.80;;;1.65;;
46561;SDS011;32289;42.688;23.330;2023-02-26T01:39:42;10.07;;;2.45;;
46561;SDS011;32289;42.688;23.330;2023-02-26T01:47:50;5.28;;;1.40;;
46561;SDS011;32289;42.688;23.330;2023-02-26T01:55:22;5.72;;;1.95;;
46561;SDS011;32289;42.688;23.330;2023-02-26T01:59:04;4.78;;;2.03;;
46561;SDS011;32289;42.688;23.330;2023-02-26T02:02:48;7.18;;;1.70;;
46561;SDS011;32289;42.688;23.330;2023-02-26T02:06:29;7.47;;;2.03;;
46561;SDS011;32289;42.688;23.330;2023-02-26T02:10:10;3.05;;;1.50;;
46561;SDS011;32289;42.688;23.330;2023-02-26T02:34:40;11.32;;;1.85;;
46561;SDS011;32289;42.688;23.330;2023-02-26T02:38:27;8.85;;;1.88;;
46561;SDS011;32289;42.688;23.330;2023-02-26T02:42:19;5.78;;;1.70;;
46561;SDS011;32289;42.688;23.330;2023-02-26T02:46:10;7.13;;;2.10;;
46561;SDS011;32289;42.688;23.330;2023-02-26T02:50:01;13.88;;;1.77;;
46561;SDS011;32289;42.688;23.330;2023-02-26T02:53:46;6.47;;;1.20;;
46561;SDS011;32289;42.688;23.330;2023-02-26T02:57:34;5.93;;;1.58;;
46561;SDS011;32289;42.688;23.330;2023-02-26T03:01:21;9.15;;;1.70;;
46561;SDS011;32289;42.688;23.330;2023-02-26T03:05:05;13.32;;;1.88;;
46561;SDS011;32289;42.688;23.330;2023-02-26T03:08:46;3.90;;;1.92;;
46561;SDS011;32289;42.688;23.330;2023-02-26T03:12:32;7.10;;;1.52;;
46561;SDS011;32289;42.688;23.330;2023-02-26T03:23:49;7.18;;;1.88;;
46561;SDS011;32289;42.688;23.330;2023-02-26T03:31:43;3.63;;;1.33;;
46561;SDS011;32289;42.688;23.330;2023-02-26T03:39:38;8.15;;;2.35;;
46561;SDS011;32289;42.688;23.330;2023-02-26T03:43:40;4.63;;;1.20;;
46561;SDS011;32289;42.688;23.330;2023-02-26T03:47:27;8.00;;;1.63;;
46561;SDS011;32289;42.688;23.330;2023-02-26T03:51:10;3.78;;;1.67;;
46561;SDS011;32289;42.688;23.330;2023-02-26T03:54:58;6.32;;;1.77;;
46561;SDS011;32289;42.688;23.330;2023-02-26T03:58:42;4.67;;;2.03;;
46561;SDS011;32289;42.688;23.330;2023-02-26T04:02:26;6.93;;;1.60;;
46561;SDS011;32289;42.688;23.330;2023-02-26T04:06:10;9.93;;;1.95;;
46561;SDS011;32289;42.688;23.330;2023-02-26T04:09:51;10.73;;;2.17;;
46561;SDS011;32289;42.688;23.330;2023-02-26T04:13:32;6.82;;;2.10;;
46561;SDS011;32289;42.688;23.330;2023-02-26T04:17:13;3.60;;;1.42;;
46561;SDS011;32289;42.688;23.330;2023-02-26T04:20:54;7.72;;;1.50;;
46561;SDS011;32289;42.688;23.330;2023-02-26T04:24:35;3.10;;;1.30;;
46561;SDS011;32289;42.688;23.330;2023-02-26T04:28:15;3.38;;;1.80;;
46561;SDS011;32289;42.688;23.330;2023-02-26T04:31:56;3.97;;;1.75;;
46561;SDS011;32289;42.688;23.330;2023-02-26T04:35:37;9.60;;;1.52;;
46561;SDS011;32289;42.688;23.330;2023-02-26T04:39:18;12.15;;;1.58;;
46561;SDS011;32289;42.688;23.330;2023-02-26T04:42:58;3.63;;;1.05;;
46561;SDS011;32289;42.688;23.330;2023-02-26T04:46:39;3.80;;;1.38;;
46561;SDS011;32289;42.688;23.330;2023-02-26T04:50:20;4.20;;;1.75;;
46561;SDS011;32289;42.688;23.330;2023-02-26T04:54:00;9.90;;;1.55;;
46561;SDS011;32289;42.688;23.330;2023-02-26T04:57:41;2.53;;;1.40;;
46561;SDS011;32289;42.688;23.330;2023-02-26T05:01:22;7.35;;;1.70;;
46561;SDS011;32289;42.688;23.330;2023-02-26T05:05:03;5.15;;;1.80;;
46561;SDS011;32289;42.688;23.330;2023-02-26T05:08:44;8.20;;;1.38;;
46561;SDS011;32289;42.688;23.330;2023-02-26T05:12:24;4.18;;;1.52;;
46561;SDS011;32289;42.688;23.330;2023-02-26T05:16:06;5.45;;;1.63;;
46561;SDS011;32289;42.688;23.330;2023-02-26T05:19:46;8.15;;;1.50;;
46561;SDS011;32289;42.688;23.330;2023-02-26T05:23:28;7.68;;;2.10;;
46561;SDS011;32289;42.688;23.330;2023-02-26T05:27:09;5.75;;;1.60;;
46561;SDS011;32289;42.688;23.330;2023-02-26T05:30:49;5.55;;;1.67;;
46561;SDS011;32289;42.688;23.330;2023-02-26T05:34:30;8.70;;;1.67;;
46561;SDS011;32289;42.688;23.330;2023-02-26T05:38:11;11.45;;;2.00;;
46561;SDS011;32289;42.688;23.330;2023-02-26T05:41:51;5.07;;;1.80;;
46561;SDS011;32289;42.688;23.330;2023-02-26T05:45:34;4.38;;;1.17;;
46561;SDS011;32289;42.688;23.330;2023-02-26T05:49:15;5.50;;;1.63;;
46561;SDS011;32289;42.688;23.330;2023-02-26T05:52:56;7.80;;;1.17;;
46561;SDS011;32289;42.688;23.330;2023-02-26T05:56:36;5.43;;;1.45;;
46561;SDS011;32289;42.688;23.330;2023-02-26T06:00:17;6.28;;;1.48;;
46561;SDS011;32289;42.688;23.330;2023-02-26T06:03:58;5.60;;;1.50;;
46561;SDS011;32289;42.688;23.330;2023-02-26T06:07:39;7.65;;;1.30;;
46561;SDS011;32289;42.688;23.330;2023-02-26T06:11:20;9.98;;;1.98;;
46561;SDS011;32289;42.688;23.330;2023-02-26T06:15:01;9.23;;;1.40;;
46561;SDS011;32289;42.688;23.330;2023-02-26T06:18:42;10.75;;;1.77;;
46561;SDS011;32289;42.688;23.330;2023-02-26T06:22:23;7.40;;;1.52;;
46561;SDS011;32289;42.688;23.330;2023-02-26T06:26:04;5.40;;;1.70;;
46561;SDS011;32289;42.688;23.330;2023-02-26T06:29:45;8.00;;;1.40;;
46561;SDS011;32289;42.688;23.330;2023-02-26T06:33:25;4.97;;;1.30;;
46561;SDS011;32289;42.688;23.330;2023-02-26T06:37:06;10.75;;;1.30;;
46561;SDS011;32289;42.688;23.330;2023-02-26T06:40:47;4.32;;;0.98;;
46561;SDS011;32289;42.688;23.330;2023-02-26T06:44:27;5.13;;;1.35;;
46561;SDS011;32289;42.688;23.330;2023-02-26T06:48:08;5.35;;;1.60;;
46561;SDS011;32289;42.688;23.330;2023-02-26T06:51:49;10.50;;;1.40;;
46561;SDS011;32289;42.688;23.330;2023-02-26T06:55:30;7.75;;;1.52;;
46561;SDS011;32289;42.688;23.330;2023-02-26T06:59:11;11.40;;;1.45;;
46561;SDS011;32289;42.688;23.330;2023-02-26T07:02:52;10.82;;;1.55;;
46561;SDS011;32289;42.688;23.330;2023-02-26T07:06:32;11.20;;;1.90;;
46561;SDS011;32289;42.688;23.330;2023-02-26T07:10:13;6.93;;;1.63;;
46561;SDS011;32289;42.688;23.330;2023-02-26T07:13:56;6.38;;;1.58;;
46561;SDS011;32289;42.688;23.330;2023-02-26T07:17:37;4.55;;;0.95;;
46561;SDS011;32289;42.688;23.330;2023-02-26T07:21:17;9.75;;;1.83;;
46561;SDS011;32289;42.688;23.330;2023-02-26T07:24:59;6.22;;;1.98;;
46561;SDS011;32289;42.688;23.330;2023-02-26T07:28:39;7.18;;;1.92;;
46561;SDS011;32289;42.688;23.330;2023-02-26T07:32:20;4.35;;;1.30;;
46561;SDS011;32289;42.688;23.330;2023-02-26T07:36:01;8.77;;;1.20;;
46561;SDS011;32289;42.688;23.330;2023-02-26T07:39:42;9.13;;;1.98;;
46561;SDS011;32289;42.688;23.330;2023-02-26T07:43:23;13.07;;;1.95;;
46561;SDS011;32289;42.688;23.330;2023-02-26T07:47:04;5.40;;;1.55;;
46561;SDS011;32289;42.688;23.330;2023-02-26T07:50:45;7.65;;;1.60;;
46561;SDS011;32289;42.688;23.330;2023-02-26T07:54:26;6.50;;;1.40;;
46561;SDS011;32289;42.688;23.330;2023-02-26T07:58:07;5.93;;;1.92;;
46561;SDS011;32289;42.688;23.330;2023-02-26T08:01:47;11.52;;;2.42;;
46561;SDS011;32289;42.688;23.330;2023-02-26T08:05:28;4.53;;;1.70;;
46561;SDS011;32289;42.688;23.330;2023-02-26T08:09:12;5.05;;;1.45;;
46561;SDS011;32289;42.688;23.330;2023-02-26T08:12:53;7.75;;;1.60;;
46561;SDS011;32289;42.688;23.330;2023-02-26T08:16:34;7.28;;;2.38;;
46561;SDS011;32289;42.688;23.330;2023-02-26T08:20:15;8.88;;;1.80;;
46561;SDS011;32289;42.688;23.330;2023-02-26T08:23:56;9.25;;;2.10;;
46561;SDS011;32289;42.688;23.330;2023-02-26T08:27:38;15.95;;;2.05;;
46561;SDS011;32289;42.688;23.330;2023-02-26T08:31:28;9.50;;;1.50;;
46561;SDS011;32289;42.688;23.330;2023-02-26T08:35:17;5.63;;;2.07;;
46561;SDS011;32289;42.688;23.330;2023-02-26T08:38:58;9.10;;;2.45;;
46561;SDS011;32289;42.688;23.330;2023-02-26T08:42:39;10.73;;;1.60;;
46561;SDS011;32289;42.688;23.330;2023-02-26T08:46:20;7.18;;;2.30;;
46561;SDS011;32289;42.688;23.330;2023-02-26T08:50:12;5.32;;;2.00;;
46561;SDS011;32289;42.688;23.330;2023-02-26T08:53:52;5.72;;;1.95;;
46561;SDS011;32289;42.688;23.330;2023-02-26T08:57:33;11.50;;;2.17;;
46561;SDS011;32289;42.688;23.330;2023-02-26T09:01:14;5.70;;;1.63;;
46561;SDS011;32289;42.688;23.330;2023-02-26T09:04:58;4.97;;;1.40;;
46561;SDS011;32289;42.688;23.330;2023-02-26T09:08:58;13.63;;;2.25;;
46561;SDS011;32289;42.688;23.330;2023-02-26T09:16:23;4.38;;;1.13;;
46561;SDS011;32289;42.688;23.330;2023-02-26T09:20:07;9.85;;;1.88;;
46561;SDS011;32289;42.688;23.330;2023-02-26T09:23:53;8.32;;;2.40;;
46561;SDS011;32289;42.688;23.330;2023-02-26T09:27:37;7.15;;;2.55;;
46561;SDS011;32289;42.688;23.330;2023-02-26T09:31:17;7.55;;;1.98;;
46561;SDS011;32289;42.688;23.330;2023-02-26T09:34:58;8.25;;;2.15;;
46561;SDS011;32289;42.688;23.330;2023-02-26T09:38:39;6.78;;;1.35;;
46561;SDS011;32289;42.688;23.330;2023-02-26T09:42:29;10.52;;;3.83;;
46561;SDS011;32289;42.688;23.330;2023-02-26T09:54:08;11.60;;;2.92;;
46561;SDS011;32289;42.688;23.330;2023-02-26T09:57:58;3.33;;;1.27;;
46561;SDS011;32289;42.688;23.330;2023-02-26T10:10:13;13.73;;;3.30;;
46561;SDS011;32289;42.688;23.330;2023-02-26T10:21:58;9.80;;;2.70;;
46561;SDS011;32289;42.688;23.330;2023-02-26T10:25:49;14.75;;;3.50;;
46561;SDS011;32289;42.688;23.330;2023-02-26T10:29:40;12.15;;;3.95;;
46561;SDS011;32289;42.688;23.330;2023-02-26T10:41:43;14.20;;;3.47;;
46561;SDS011;32289;42.688;23.330;2023-02-26T10:53:24;8.52;;;2.53;;
46561;SDS011;32289;42.688;23.330;2023-02-26T10:57:09;7.57;;;2.22;;
46561;SDS011;32289;42.688;23.330;2023-02-26T11:01:06;8.68;;;2.28;;
46561;SDS011;32289;42.688;23.330;2023-02-26T11:04:54;6.47;;;1.52;;
46561;SDS011;32289;42.688;23.330;2023-02-26T11:08:39;6.95;;;1.70;;
46561;SDS011;32289;42.688;23.330;2023-02-26T11:12:24;8.38;;;3.45;;
46561;SDS011;32289;42.688;23.330;2023-02-26T11:16:11;5.93;;;1.92;;
46561;SDS011;32289;42.688;23.330;2023-02-26T11:28:25;6.50;;;3.05;;
46561;SDS011;32289;42.688;23.330;2023-02-26T11:32:34;7.07;;;3.25;;
46561;SDS011;32289;42.688;23.330;2023-02-26T11:36:18;10.68;;;3.13;;
46561;SDS011;32289;42.688;23.330;2023-02-26T11:40:04;5.05;;;2.10;;
46561;SDS011;32289;42.688;23.330;2023-02-26T11:47:42;4.43;;;1.40;;
46561;SDS011;32289;42.688;23.330;2023-02-26T11:51:29;6.32;;;1.83;;
46561;SDS011;32289;42.688;23.330;2023-02-26T11:55:31;6.45;;;1.52;;
46561;SDS011;32289;42.688;23.330;2023-02-26T12:03:01;8.85;;;2.15;;
46561;SDS011;32289;42.688;23.330;2023-02-26T12:06:51;8.20;;;2.92;;
46561;SDS011;32289;42.688;23.330;2023-02-26T12:10:35;10.65;;;2.08;;
46561;SDS011;32289;42.688;23.330;2023-02-26T12:14:37;7.57;;;2.22;;
46561;SDS011;32289;42.688;23.330;2023-02-26T12:26:31;8.07;;;2.78;;
46561;SDS011;32289;42.688;23.330;2023-02-26T12:38:29;5.13;;;2.20;;
46561;SDS011;32289;42.688;23.330;2023-02-26T12:45:58;8.63;;;1.98;;
46561;SDS011;32289;42.688;23.330;2023-02-26T13:02:00;10.23;;;2.38;;
46561;SDS011;32289;42.688;23.330;2023-02-26T13:18:05;15.27;;;4.30;;
46561;SDS011;32289;42.688;23.330;2023-02-26T13:22:29;10.23;;;3.30;;
46561;SDS011;32289;42.688;23.330;2023-02-26T13:26:16;11.05;;;2.78;;
46561;SDS011;32289;42.688;23.330;2023-02-26T13:30:21;9.75;;;2.30;;
46561;SDS011;32289;42.688;23.330;2023-02-26T13:34:35;7.68;;;1.80;;
46561;SDS011;32289;42.688;23.330;2023-02-26T13:42:30;11.98;;;2.22;;
46561;SDS011;32289;42.688;23.330;2023-02-26T13:57:54;12.50;;;1.95;;
46561;SDS011;32289;42.688;23.330;2023-02-26T14:01:47;10.63;;;2.95;;
46561;SDS011;32289;42.688;23.330;2023-02-26T14:09:30;11.05;;;1.98;;
46561;SDS011;32289;42.688;23.330;2023-02-26T14:13:23;11.55;;;2.05;;
46561;SDS011;32289;42.688;23.330;2023-02-26T14:17:25;10.30;;;2.08;;
46561;SDS011;32289;42.688;23.330;2023-02-26T14:25:11;11.55;;;3.35;;
46561;SDS011;32289;42.688;23.330;2023-02-26T14:29:15;10.23;;;2.72;;
46561;SDS011;32289;42.688;23.330;2023-02-26T14:33:07;8.13;;;2.78;;
46561;SDS011;32289;42.688;23.330;2023-02-26T14:37:01;8.55;;;2.30;;
46561;SDS011;32289;42.688;23.330;2023-02-26T14:40:48;10.88;;;2.88;;
46561;SDS011;32289;42.688;23.330;2023-02-26T14:44:35;9.35;;;2.88;;
46561;SDS011;32289;42.688;23.330;2023-02-26T14:48:20;6.18;;;1.92;;
46561;SDS011;32289;42.688;23.330;2023-02-26T14:56:29;10.65;;;2.55;;
46561;SDS011;32289;42.688;23.330;2023-02-26T15:08:06;11.35;;;2.38;;
46561;SDS011;32289;42.688;23.330;2023-02-26T15:11:57;12.27;;;3.22;;
46561;SDS011;32289;42.688;23.330;2023-02-26T15:23:42;7.57;;;3.00;;
46561;SDS011;32289;42.688;23.330;2023-02-26T15:27:26;16.48;;;3.13;;
46561;SDS011;32289;42.688;23.330;2023-02-26T15:31:10;21.85;;;3.75;;
46561;SDS011;32289;42.688;23.330;2023-02-26T15:34:59;15.02;;;3.28;;
46561;SDS011;32289;42.688;23.330;2023-02-26T15:38:48;11.32;;;3.15;;
46561;SDS011;32289;42.688;23.330;2023-02-26T15:42:33;19.75;;;3.65;;
46561;SDS011;32289;42.688;23.330;2023-02-26T15:46:25;9.40;;;2.85;;
46561;SDS011;32289;42.688;23.330;2023-02-26T15:50:12;19.75;;;3.13;;
46561;SDS011;32289;42.688;23.330;2023-02-26T15:53:55;13.27;;;3.80;;
46561;SDS011;32289;42.688;23.330;2023-02-26T15:57:41;9.63;;;3.50;;
46561;SDS011;32289;42.688;23.330;2023-02-26T16:01:23;9.77;;;2.58;;
46561;SDS011;32289;42.688;23.330;2023-02-26T16:05:06;6.32;;;2.53;;
46561;SDS011;32289;42.688;23.330;2023-02-26T16:08:49;8.55;;;2.70;;
46561;SDS011;32289;42.688;23.330;2023-02-26T16:12:33;21.17;;;2.70;;
46561;SDS011;32289;42.688;23.330;2023-02-26T16:16:20;10.45;;;3.83;;
46561;SDS011;32289;42.688;23.330;2023-02-26T16:20:07;15.93;;;3.67;;
46561;SDS011;32289;42.688;23.330;2023-02-26T16:23:56;17.00;;;4.30;;
46561;SDS011;32289;42.688;23.330;2023-02-26T16:27:38;17.50;;;4.20;;
46561;SDS011;32289;42.688;23.330;2023-02-26T16:31:22;10.07;;;3.42;;
46561;SDS011;32289;42.688;23.330;2023-02-26T16:35:11;14.77;;;3.67;;
46561;SDS011;32289;42.688;23.330;2023-02-26T16:39:10;8.48;;;3.60;;
46561;SDS011;32289;42.688;23.330;2023-02-26T16:47:29;17.10;;;4.40;;
46561;SDS011;32289;42.688;23.330;2023-02-26T16:51:11;8.88;;;3.65;;
46561;SDS011;32289;42.688;23.330;2023-02-26T16:54:57;14.00;;;3.42;;
46561;SDS011;32289;42.688;23.330;2023-02-26T16:58:43;27.35;;;4.47;;
46561;SDS011;32289;42.688;23.330;2023-02-26T17:02:28;9.23;;;4.10;;
46561;SDS011;32289;42.688;23.330;2023-02-26T17:06:12;12.38;;;3.88;;
46561;SDS011;32289;42.688;23.330;2023-02-26T17:09:59;9.45;;;4.57;;
46561;SDS011;32289;42.688;23.330;2023-02-26T17:17:43;13.65;;;4.00;;
46561;SDS011;32289;42.688;23.330;2023-02-26T17:21:23;12.27;;;3.38;;
46561;SDS011;32289;42.688;23.330;2023-02-26T17:25:04;12.10;;;4.05;;
46561;SDS011;32289;42.688;23.330;2023-02-26T17:28:45;23.08;;;5.07;;
46561;SDS011;32289;42.688;23.330;2023-02-26T17:32:26;18.63;;;3.53;;
46561;SDS011;32289;42.688;23.330;2023-02-26T17:36:13;12.10;;;4.63;;
46561;SDS011;32289;42.688;23.330;2023-02-26T17:39:55;11.85;;;3.88;;
46561;SDS011;32289;42.688;23.330;2023-02-26T17:43:38;13.63;;;4.15;;
46561;SDS011;32289;42.688;23.330;2023-02-26T17:47:22;12.85;;;4.65;;
46561;SDS011;32289;42.688;23.330;2023-02-26T17:51:05;10.07;;;3.78;;
46561;SDS011;32289;42.688;23.330;2023-02-26T17:54:46;26.98;;;6.57;;
46561;SDS011;32289;42.688;23.330;2023-02-26T17:58:27;13.73;;;4.03;;
46561;SDS011;32289;42.688;23.330;2023-02-26T18:02:20;9.52;;;3.58;;
46561;SDS011;32289;42.688;23.330;2023-02-26T18:06:04;9.80;;;2.95;;
46561;SDS011;32289;42.688;23.330;2023-02-26T18:09:46;7.85;;;3.03;;
46561;SDS011;32289;42.688;23.330;2023-02-26T18:13:27;17.05;;;3.17;;
46561;SDS011;32289;42.688;23.330;2023-02-26T18:17:12;10.50;;;3.05;;
46561;SDS011;32289;42.688;23.330;2023-02-26T18:21:14;14.32;;;4.03;;
46561;SDS011;32289;42.688;23.330;2023-02-26T18:24:54;8.38;;;2.75;;
46561;SDS011;32289;42.688;23.330;2023-02-26T18:28:35;6.35;;;2.33;;
46561;SDS011;32289;42.688;23.330;2023-02-26T18:32:17;13.80;;;3.67;;
46561;SDS011;32289;42.688;23.330;2023-02-26T18:35:59;8.38;;;2.42;;
46561;SDS011;32289;42.688;23.330;2023-02-26T18:39:40;16.23;;;3.83;;
46561;SDS011;32289;42.688;23.330;2023-02-26T18:43:21;8.80;;;2.60;;
46561;SDS011;32289;42.688;23.330;2023-02-26T18:47:02;8.20;;;3.08;;
46561;SDS011;32289;42.688;23.330;2023-02-26T18:50:43;11.52;;;3.75;;
46561;SDS011;32289;42.688;23.330;2023-02-26T18:54:25;27.00;;;4.78;;
46561;SDS011;32289;42.688;23.330;2023-02-26T18:58:06;14.70;;;4.90;;
46561;SDS011;32289;42.688;23.330;2023-02-26T19:01:46;16.98;;;4.60;;
46561;SDS011;32289;42.688;23.330;2023-02-26T19:05:27;19.60;;;5.03;;
46561;SDS011;32289;42.688;23.330;2023-02-26T19:09:08;28.52;;;5.38;;
46561;SDS011;32289;42.688;23.330;2023-02-26T19:12:49;18.00;;;5.30;;
46561;SDS011;32289;42.688;23.330;2023-02-26T19:16:29;21.95;;;6.68;;
46561;SDS011;32289;42.688;23.330;2023-02-26T19:20:14;28.67;;;7.70;;
46561;SDS011;32289;42.688;23.330;2023-02-26T19:23:55;18.33;;;6.25;;
46561;SDS011;32289;42.688;23.330;2023-02-26T19:27:36;28.45;;;7.18;;
46561;SDS011;32289;42.688;23.330;2023-02-26T19:31:17;23.48;;;6.70;;
46561;SDS011;32289;42.688;23.330;2023-02-26T19:34:59;20.73;;;7.85;;
46561;SDS011;32289;42.688;23.330;2023-02-26T19:38:40;29.98;;;8.35;;
46561;SDS011;32289;42.688;23.330;2023-02-26T19:42:26;25.95;;;7.90;;
46561;SDS011;32289;42.688;23.330;2023-02-26T19:46:07;27.77;;;7.43;;
46561;SDS011;32289;42.688;23.330;2023-02-26T19:49:48;29.23;;;7.57;;
46561;SDS011;32289;42.688;23.330;2023-02-26T19:53:28;15.82;;;5.90;;
46561;SDS011;32289;42.688;23.330;2023-02-26T19:57:10;19.85;;;6.35;;
46561;SDS011;32289;42.688;23.330;2023-02-26T20:00:52;25.60;;;6.13;;
46561;SDS011;32289;42.688;23.330;2023-02-26T20:04:32;16.92;;;7.32;;
46561;SDS011;32289;42.688;23.330;2023-02-26T20:08:13;21.88;;;7.20;;
46561;SDS011;32289;42.688;23.330;2023-02-26T20:11:54;32.45;;;7.53;;
46561;SDS011;32289;42.688;23.330;2023-02-26T20:15:34;19.40;;;6.50;;
46561;SDS011;32289;42.688;23.330;2023-02-26T20:19:15;20.95;;;7.00;;
46561;SDS011;32289;42.688;23.330;2023-02-26T20:22:56;23.35;;;6.65;;
46561;SDS011;32289;42.688;23.330;2023-02-26T20:26:37;19.50;;;6.13;;
46561;SDS011;32289;42.688;23.330;2023-02-26T20:30:17;14.98;;;6.70;;
46561;SDS011;32289;42.688;23.330;2023-02-26T20:33:59;15.85;;;5.82;;
46561;SDS011;32289;42.688;23.330;2023-02-26T20:37:40;19.75;;;5.68;;
46561;SDS011;32289;42.688;23.330;2023-02-26T20:41:21;12.20;;;5.00;;
46561;SDS011;32289;42.688;23.330;2023-02-26T20:45:01;8.23;;;3.85;;
46561;SDS011;32289;42.688;23.330;2023-02-26T20:48:43;15.15;;;4.95;;
46561;SDS011;32289;42.688;23.330;2023-02-26T20:52:24;11.70;;;4.32;;
46561;SDS011;32289;42.688;23.330;2023-02-26T20:56:05;13.80;;;5.03;;
46561;SDS011;32289;42.688;23.330;2023-02-26T20:59:45;15.57;;;4.68;;
46561;SDS011;32289;42.688;23.330;2023-02-26T21:03:26;22.60;;;5.40;;
46561;SDS011;32289;42.688;23.330;2023-02-26T21:07:07;14.27;;;4.60;;
46561;SDS011;32289;42.688;23.330;2023-02-26T21:11:00;12.85;;;4.93;;
46561;SDS011;32289;42.688;23.330;2023-02-26T21:14:43;11.23;;;4.13;;
46561;SDS011;32289;42.688;23.330;2023-02-26T21:18:24;11.60;;;5.05;;
46561;SDS011;32289;42.688;23.330;2023-02-26T21:22:05;23.88;;;5.20;;
46561;SDS011;32289;42.688;23.330;2023-02-26T21:25:46;13.13;;;3.97;;
46561;SDS011;32289;42.688;23.330;2023-02-26T21:29:27;10.45;;;4.50;;
46561;SDS011;32289;42.688;23.330;2023-02-26T21:33:07;9.75;;;4.57;;
46561;SDS011;32289;42.688;23.330;2023-02-26T21:36:48;10.43;;;3.97;;
46561;SDS011;32289;42.688;23.330;2023-02-26T21:40:29;16.63;;;4.47;;
46561;SDS011;32289;42.688;23.330;2023-02-26T21:44:11;15.93;;;4.40;;
46561;SDS011;32289;42.688;23.330;2023-02-26T21:47:51;16.02;;;4.35;;
46561;SDS011;32289;42.688;23.330;2023-02-26T21:51:32;8.27;;;4.28;;
46561;SDS011;32289;42.688;23.330;2023-02-26T21:55:15;8.95;;;3.42;;
46561;SDS011;32289;42.688;23.330;2023-02-26T21:58:55;25.27;;;4.50;;
46561;SDS011;32289;42.688;23.330;2023-02-26T22:02:36;15.40;;;4.10;;
46561;SDS011;32289;42.688;23.330;2023-02-26T22:06:17;11.20;;;3.45;;
46561;SDS011;32289;42.688;23.330;2023-02-26T22:09:57;12.32;;;4.05;;
46561;SDS011;32289;42.688;23.330;2023-02-26T22:13:38;11.23;;;4.20;;
46561;SDS011;32289;42.688;23.330;2023-02-26T22:17:19;9.30;;;4.07;;
46561;SDS011;32289;42.688;23.330;2023-02-26T22:21:00;13.85;;;3.38;;
46561;SDS011;32289;42.688;23.330;2023-02-26T22:24:41;13.55;;;4.55;;
46561;SDS011;32289;42.688;23.330;2023-02-26T22:28:22;10.75;;;4.38;;
46561;SDS011;32289;42.688;23.330;2023-02-26T22:32:03;16.85;;;4.95;;
46561;SDS011;32289;42.688;23.330;2023-02-26T22:35:44;13.02;;;5.13;;
46561;SDS011;32289;42.688;23.330;2023-02-26T22:39:24;11.38;;;4.00;;
46561;SDS011;32289;42.688;23.330;2023-02-26T22:43:05;8.45;;;4.28;;
46561;SDS011;32289;42.688;23.330;2023-02-26T22:46:46;9.65;;;4.18;;
46561;SDS011;32289;42.688;23.330;2023-02-26T22:50:28;15.32;;;4.72;;
46561;SDS011;32289;42.688;23.330;2023-02-26T22:54:08;10.75;;;4.20;;
46561;SDS011;32289;42.688;23.330;2023-02-26T22:57:51;12.20;;;5.25;;
46561;SDS011;32289;42.688;23.330;2023-02-26T23:01:31;17.05;;;4.90;;
46561;SDS011;32289;42.688;23.330;2023-02-26T23:05:12;15.23;;;4.65;;
46561;SDS011;32289;42.688;23.330;2023-02-26T23:08:54;16.15;;;5.07;;
46561;SDS011;32289;42.688;23.330;2023-02-26T23:12:34;7.32;;;3.38;;
46561;SDS011;32289;42.688;23.330;2023-02-26T23:16:15;8.05;;;3.67;;
46561;SDS011;32289;42.688;23.330;2023-02-26T23:19:56;6.47;;;3.67;;
46561;SDS011;32289;42.688;23.330;2023-02-26T23:23:36;12.65;;;3.63;;
46561;SDS011;32289;42.688;23.330;2023-02-26T23:27:17;7.85;;;4.05;;
46561;SDS011;32289;42.688;23.330;2023-02-26T23:30:58;9.02;;;3.97;;
46561;SDS011;32289;42.688;23.330;2023-02-26T23:34:38;10.02;;;3.67;;
46561;SDS011;32289;42.688;23.330;2023-02-26T23:38:19;12.88;;;4.30;;
46561;SDS011;32289;42.688;23.330;2023-02-26T23:42:00;11.93;;;4.75;;
46561;SDS011;32289;42.688;23.330;2023-02-26T23:45:41;14.00;;;4.03;;
46561;SDS011;32289;42.688;23.330;2023-02-26T23:49:21;7.25;;;3.28;;
46561;SDS011;32289;42.688;23.330;2023-02-26T23:53:02;9.68;;;3.58;;
46561;SDS011;32289;42.688;23.330;2023-02-26T23:56:43;10.80;;;3.53;;
